RYR496E LEZL-GCFV
Flight info
| Callsign | RYR496E |
|---|---|
| Flight time | 1h 56m |
| Altitude | 37000 |
| Route | CLANA N857 KORNO UN857 TERTO |
| Aircraft | B738/M-SDE2E3FGHIRWXY/LB1 |
Departure
| Time | 2026-04-24 22:37 |
|---|---|
| Airport | Seville Airport (LEZL) |
Arrival
| Time | 2026-04-25 00:33 |
|---|---|
| Airport | Fuerteventura Airport (GCFV) |
| Time | Latitude | Longitude | Altitude | Speed | Heading |
|---|---|---|---|---|---|
| 2026-04-24 22:21 | 37.42422 | -5.89646 | 94 ft | 0 kts | 100° |
| 2026-04-24 22:31 | 37.42417 | -5.89639 | 93 ft | 1 kts | 167° |
| 2026-04-24 22:31 | 37.42405 | -5.89652 | 93 ft | 4 kts | 228° |
| 2026-04-24 22:31 | 37.42361 | -5.89675 | 94 ft | 8 kts | 202° |
| 2026-04-24 22:31 | 37.42307 | -5.89726 | 93 ft | 10 kts | 212° |
| 2026-04-24 22:32 | 37.42242 | -5.89694 | 92 ft | 13 kts | 133° |
| 2026-04-24 22:32 | 37.42162 | -5.89590 | 90 ft | 17 kts | 135° |
| 2026-04-24 22:32 | 37.42079 | -5.89483 | 90 ft | 17 kts | 133° |
| 2026-04-24 22:32 | 37.41990 | -5.89359 | 90 ft | 18 kts | 113° |
| 2026-04-24 22:33 | 37.41981 | -5.89203 | 90 ft | 17 kts | 89° |
| 2026-04-24 22:33 | 37.41982 | -5.89045 | 90 ft | 18 kts | 90° |
| 2026-04-24 22:33 | 37.41983 | -5.88868 | 91 ft | 22 kts | 89° |
| 2026-04-24 22:33 | 37.41983 | -5.88655 | 94 ft | 24 kts | 89° |
| 2026-04-24 22:34 | 37.41984 | -5.88443 | 95 ft | 22 kts | 89° |
| 2026-04-24 22:34 | 37.41985 | -5.88243 | 99 ft | 22 kts | 89° |
| 2026-04-24 22:34 | 37.41985 | -5.88042 | 100 ft | 23 kts | 90° |
| 2026-04-24 22:34 | 37.41987 | -5.87847 | 103 ft | 20 kts | 89° |
| 2026-04-24 22:35 | 37.41987 | -5.87672 | 104 ft | 19 kts | 90° |
| 2026-04-24 22:35 | 37.41975 | -5.87512 | 106 ft | 16 kts | 109° |
| 2026-04-24 22:35 | 37.41893 | -5.87425 | 107 ft | 15 kts | 178° |
| 2026-04-24 22:35 | 37.41807 | -5.87512 | 107 ft | 19 kts | 251° |
| 2026-04-24 22:36 | 37.41798 | -5.87824 | 100 ft | 64 kts | 269° |
| 2026-04-24 22:36 | 37.41797 | -5.88651 | 94 ft | 122 kts | 269° |
| 2026-04-24 22:36 | 37.41793 | -5.89935 | 91 ft | 167 kts | 270° |
| 2026-04-24 22:36 | 37.41814 | -5.91427 | 602 ft | 168 kts | 270° |
| 2026-04-24 22:37 | 37.41895 | -5.92927 | 1057 ft | 179 kts | 278° |
| 2026-04-24 22:37 | 37.42178 | -5.94465 | 1684 ft | 178 kts | 286° |
| 2026-04-24 22:37 | 37.42534 | -5.96010 | 1988 ft | 195 kts | 286° |
| 2026-04-24 22:37 | 37.42911 | -5.97758 | 2289 ft | 215 kts | 285° |
| 2026-04-24 22:38 | 37.43396 | -5.99604 | 2831 ft | 223 kts | 293° |
| 2026-04-24 22:38 | 37.43880 | -6.01535 | 3238 ft | 238 kts | 279° |
| 2026-04-24 22:38 | 37.43787 | -6.03664 | 3607 ft | 256 kts | 252° |
| 2026-04-24 22:38 | 37.42762 | -6.05573 | 4098 ft | 268 kts | 220° |
| 2026-04-24 22:39 | 37.41128 | -6.06733 | 4645 ft | 276 kts | 197° |
| 2026-04-24 22:39 | 37.39208 | -6.07125 | 5301 ft | 279 kts | 181° |
| 2026-04-24 22:39 | 37.37249 | -6.07073 | 5943 ft | 284 kts | 176° |
| 2026-04-24 22:39 | 37.35267 | -6.06899 | 6594 ft | 287 kts | 174° |
| 2026-04-24 22:40 | 37.33235 | -6.06704 | 7305 ft | 289 kts | 175° |
| 2026-04-24 22:40 | 37.31216 | -6.06522 | 8001 ft | 291 kts | 175° |
| 2026-04-24 22:40 | 37.29163 | -6.06352 | 8698 ft | 294 kts | 175° |
| 2026-04-24 22:40 | 37.27117 | -6.06191 | 9403 ft | 296 kts | 175° |
| 2026-04-24 22:41 | 37.25045 | -6.06031 | 10103 ft | 299 kts | 175° |
| 2026-04-24 22:41 | 37.22928 | -6.05866 | 10661 ft | 308 kts | 175° |
| 2026-04-24 22:41 | 37.20703 | -6.05691 | 11202 ft | 318 kts | 175° |
| 2026-04-24 22:41 | 37.18489 | -6.05518 | 11887 ft | 322 kts | 175° |
| 2026-04-24 22:42 | 37.16225 | -6.05523 | 12552 ft | 327 kts | 186° |
| 2026-04-24 22:42 | 37.14015 | -6.06339 | 13206 ft | 332 kts | 209° |
| 2026-04-24 22:42 | 37.12152 | -6.08011 | 13913 ft | 333 kts | 220° |
| 2026-04-24 22:42 | 37.10368 | -6.09927 | 14574 ft | 337 kts | 221° |
| 2026-04-24 22:43 | 37.08569 | -6.11890 | 15220 ft | 343 kts | 221° |
| 2026-04-24 22:43 | 37.06753 | -6.13846 | 15905 ft | 346 kts | 220° |
| 2026-04-24 22:43 | 37.04920 | -6.15791 | 16532 ft | 350 kts | 220° |
| 2026-04-24 22:43 | 37.03041 | -6.17764 | 17156 ft | 355 kts | 220° |
| 2026-04-24 22:44 | 37.01143 | -6.19760 | 17779 ft | 359 kts | 220° |
| 2026-04-24 22:44 | 36.99231 | -6.21788 | 18350 ft | 363 kts | 220° |
| 2026-04-24 22:44 | 36.97281 | -6.23865 | 19016 ft | 365 kts | 220° |
| 2026-04-24 22:44 | 36.95332 | -6.25939 | 19621 ft | 369 kts | 220° |
| 2026-04-24 22:45 | 36.93374 | -6.28019 | 20238 ft | 371 kts | 220° |
| 2026-04-24 22:45 | 36.91414 | -6.30097 | 20804 ft | 374 kts | 220° |
| 2026-04-24 22:45 | 36.89388 | -6.32242 | 21356 ft | 377 kts | 220° |
| 2026-04-24 22:45 | 36.87394 | -6.34350 | 21952 ft | 378 kts | 220° |
| 2026-04-24 22:46 | 36.85365 | -6.36491 | 22438 ft | 383 kts | 220° |
| 2026-04-24 22:46 | 36.83333 | -6.38635 | 22956 ft | 385 kts | 220° |
| 2026-04-24 22:46 | 36.81254 | -6.40827 | 23430 ft | 389 kts | 219° |
| 2026-04-24 22:46 | 36.79173 | -6.43020 | 23945 ft | 392 kts | 219° |
| 2026-04-24 22:47 | 36.77091 | -6.45212 | 24437 ft | 394 kts | 219° |
| 2026-04-24 22:47 | 36.74987 | -6.47425 | 24888 ft | 398 kts | 219° |
| 2026-04-24 22:47 | 36.72863 | -6.49658 | 25351 ft | 401 kts | 219° |
| 2026-04-24 22:47 | 36.70708 | -6.51922 | 25868 ft | 402 kts | 219° |
| 2026-04-24 22:48 | 36.68570 | -6.54169 | 26323 ft | 405 kts | 219° |
| 2026-04-24 22:48 | 36.66403 | -6.56442 | 26715 ft | 409 kts | 219° |
| 2026-04-24 22:48 | 36.64201 | -6.58750 | 27155 ft | 411 kts | 219° |
| 2026-04-24 22:48 | 36.61997 | -6.61060 | 27563 ft | 414 kts | 220° |
| 2026-04-24 22:49 | 36.59757 | -6.63404 | 28050 ft | 415 kts | 219° |
| 2026-04-24 22:49 | 36.57523 | -6.65740 | 28411 ft | 418 kts | 219° |
| 2026-04-24 22:49 | 36.55284 | -6.68079 | 28760 ft | 422 kts | 219° |
| 2026-04-24 22:49 | 36.53011 | -6.70452 | 29217 ft | 422 kts | 219° |
| 2026-04-24 22:50 | 36.50734 | -6.72828 | 29492 ft | 427 kts | 219° |
| 2026-04-24 22:50 | 36.48423 | -6.75227 | 29894 ft | 428 kts | 219° |
| 2026-04-24 22:50 | 36.46111 | -6.77613 | 30251 ft | 431 kts | 219° |
| 2026-04-24 22:50 | 36.43781 | -6.80009 | 30554 ft | 433 kts | 219° |
| 2026-04-24 22:51 | 36.41453 | -6.82401 | 30890 ft | 434 kts | 220° |
| 2026-04-24 22:51 | 36.39076 | -6.84841 | 31185 ft | 437 kts | 220° |
| 2026-04-24 22:51 | 36.36715 | -6.87264 | 31452 ft | 440 kts | 220° |
| 2026-04-24 22:51 | 36.34346 | -6.89695 | 31741 ft | 441 kts | 220° |
| 2026-04-24 22:52 | 36.31938 | -6.92164 | 32093 ft | 441 kts | 221° |
| 2026-04-24 22:52 | 36.29564 | -6.94597 | 32323 ft | 444 kts | 221° |
| 2026-04-24 22:52 | 36.27169 | -6.97051 | 32622 ft | 446 kts | 222° |
| 2026-04-24 22:52 | 36.24762 | -6.99516 | 32847 ft | 448 kts | 222° |
| 2026-04-24 22:53 | 36.22319 | -7.02015 | 33184 ft | 449 kts | 222° |
| 2026-04-24 22:53 | 36.19896 | -7.04493 | 33363 ft | 452 kts | 223° |
| 2026-04-24 22:53 | 36.17465 | -7.06976 | 33625 ft | 453 kts | 223° |
| 2026-04-24 22:53 | 36.15011 | -7.09483 | 33838 ft | 456 kts | 223° |
| 2026-04-24 22:54 | 36.12550 | -7.11992 | 34129 ft | 457 kts | 224° |
| 2026-04-24 22:54 | 36.10078 | -7.14512 | 34366 ft | 458 kts | 223° |
| 2026-04-24 22:54 | 36.07595 | -7.17040 | 34599 ft | 460 kts | 224° |
| 2026-04-24 22:54 | 36.05122 | -7.19555 | 34900 ft | 459 kts | 224° |
| 2026-04-24 22:55 | 36.02636 | -7.22078 | 35302 ft | 456 kts | 224° |
| 2026-04-24 22:55 | 36.00217 | -7.24530 | 35676 ft | 452 kts | 224° |
| 2026-04-24 22:55 | 35.97760 | -7.27020 | 35992 ft | 451 kts | 224° |
| 2026-04-24 22:55 | 35.95321 | -7.29492 | 36256 ft | 451 kts | 224° |
| 2026-04-24 22:56 | 35.92897 | -7.31947 | 36590 ft | 450 kts | 225° |
| 2026-04-24 22:56 | 35.90463 | -7.34411 | 36904 ft | 449 kts | 225° |
| 2026-04-24 22:56 | 35.88038 | -7.36864 | 37093 ft | 450 kts | 225° |
| 2026-04-24 22:56 | 35.85623 | -7.39307 | 37095 ft | 450 kts | 225° |
| 2026-04-24 22:57 | 35.80738 | -7.44229 | 37094 ft | 448 kts | 225° |
| 2026-04-24 22:57 | 35.75864 | -7.49103 | 37093 ft | 450 kts | 225° |
| 2026-04-24 22:58 | 35.70989 | -7.53955 | 37098 ft | 449 kts | 225° |
| 2026-04-24 22:58 | 35.66118 | -7.58802 | 37090 ft | 451 kts | 225° |
| 2026-04-24 22:59 | 35.61227 | -7.63658 | 37091 ft | 448 kts | 225° |
| 2026-04-24 23:00 | 35.53873 | -7.70947 | 37091 ft | 448 kts | 225° |
| 2026-04-24 23:00 | 35.48993 | -7.75774 | 37093 ft | 448 kts | 225° |
| 2026-04-24 23:01 | 35.44093 | -7.80617 | 37090 ft | 449 kts | 225° |
| 2026-04-24 23:01 | 35.39236 | -7.85418 | 37095 ft | 447 kts | 225° |
| 2026-04-24 23:02 | 35.34360 | -7.90288 | 37092 ft | 449 kts | 226° |
| 2026-04-24 23:02 | 35.29492 | -7.95159 | 37091 ft | 446 kts | 226° |
| 2026-04-24 23:03 | 35.24651 | -7.99996 | 37088 ft | 447 kts | 226° |
| 2026-04-24 23:03 | 35.19810 | -8.04820 | 37093 ft | 447 kts | 226° |
| 2026-04-24 23:04 | 35.14950 | -8.09652 | 37089 ft | 445 kts | 226° |
| 2026-04-24 23:04 | 35.10127 | -8.14436 | 37095 ft | 445 kts | 226° |
| 2026-04-24 23:05 | 35.05301 | -8.19217 | 37094 ft | 444 kts | 226° |
| 2026-04-24 23:05 | 35.00457 | -8.24008 | 37091 ft | 442 kts | 226° |
| 2026-04-24 23:06 | 34.95656 | -8.28752 | 37097 ft | 445 kts | 226° |
| 2026-04-24 23:06 | 34.90823 | -8.33518 | 37099 ft | 443 kts | 226° |
| 2026-04-24 23:07 | 34.85984 | -8.38280 | 37103 ft | 443 kts | 226° |
| 2026-04-24 23:07 | 34.81162 | -8.43022 | 37101 ft | 444 kts | 226° |
| 2026-04-24 23:08 | 34.76354 | -8.47741 | 37102 ft | 442 kts | 226° |
| 2026-04-24 23:08 | 34.71506 | -8.52493 | 37099 ft | 443 kts | 226° |
| 2026-04-24 23:09 | 34.66660 | -8.57234 | 37101 ft | 442 kts | 226° |
| 2026-04-24 23:09 | 34.61862 | -8.61920 | 37101 ft | 443 kts | 226° |
| 2026-04-24 23:10 | 34.57008 | -8.66657 | 37099 ft | 442 kts | 226° |
| 2026-04-24 23:10 | 34.52188 | -8.71351 | 37094 ft | 441 kts | 226° |
| 2026-04-24 23:11 | 34.47384 | -8.76018 | 37099 ft | 441 kts | 226° |
| 2026-04-24 23:11 | 34.42538 | -8.80720 | 37091 ft | 441 kts | 225° |
| 2026-04-24 23:12 | 34.37725 | -8.85355 | 37094 ft | 440 kts | 225° |
| 2026-04-24 23:12 | 34.32886 | -8.89999 | 37095 ft | 441 kts | 225° |
| 2026-04-24 23:13 | 34.28046 | -8.94638 | 37095 ft | 440 kts | 225° |
| 2026-04-24 23:13 | 34.23203 | -8.99273 | 37095 ft | 439 kts | 225° |
| 2026-04-24 23:14 | 34.18391 | -9.03876 | 37093 ft | 440 kts | 226° |
| 2026-04-24 23:14 | 34.13567 | -9.08484 | 37095 ft | 439 kts | 225° |
| 2026-04-24 23:15 | 34.08754 | -9.13074 | 37097 ft | 437 kts | 226° |
| 2026-04-24 23:15 | 34.03936 | -9.17662 | 37098 ft | 437 kts | 225° |
| 2026-04-24 23:16 | 33.99137 | -9.22222 | 37100 ft | 434 kts | 225° |
| 2026-04-24 23:16 | 33.94337 | -9.26780 | 37100 ft | 435 kts | 225° |
| 2026-04-24 23:17 | 33.89572 | -9.31299 | 37095 ft | 434 kts | 225° |
| 2026-04-24 23:17 | 33.84808 | -9.35808 | 37096 ft | 432 kts | 225° |
| 2026-04-24 23:18 | 33.80043 | -9.40312 | 37106 ft | 431 kts | 225° |
| 2026-04-24 23:18 | 33.75306 | -9.44783 | 37106 ft | 431 kts | 225° |
| 2026-04-24 23:19 | 33.70544 | -9.49272 | 37104 ft | 429 kts | 225° |
| 2026-04-24 23:19 | 33.65828 | -9.53711 | 37105 ft | 428 kts | 225° |
| 2026-04-24 23:20 | 33.61080 | -9.58173 | 37104 ft | 428 kts | 225° |
| 2026-04-24 23:20 | 33.56366 | -9.62598 | 37100 ft | 428 kts | 225° |
| 2026-04-24 23:21 | 33.51626 | -9.67042 | 37108 ft | 429 kts | 224° |
| 2026-04-24 23:21 | 33.46916 | -9.71448 | 37111 ft | 426 kts | 224° |
| 2026-04-24 23:22 | 33.42220 | -9.75833 | 37103 ft | 425 kts | 224° |
| 2026-04-24 23:22 | 33.37501 | -9.80240 | 37106 ft | 426 kts | 224° |
| 2026-04-24 23:23 | 33.32793 | -9.84625 | 37112 ft | 424 kts | 224° |
| 2026-04-24 23:23 | 33.28116 | -9.88976 | 37109 ft | 424 kts | 224° |
| 2026-04-24 23:24 | 33.23431 | -9.93329 | 37111 ft | 424 kts | 224° |
| 2026-04-24 23:24 | 33.18719 | -9.97702 | 37112 ft | 423 kts | 223° |
| 2026-04-24 23:25 | 33.14060 | -10.02017 | 37112 ft | 423 kts | 223° |
| 2026-04-24 23:25 | 33.09365 | -10.06363 | 37112 ft | 422 kts | 223° |
| 2026-04-24 23:26 | 33.04666 | -10.10706 | 37113 ft | 424 kts | 223° |
| 2026-04-24 23:26 | 32.99994 | -10.15015 | 37108 ft | 421 kts | 223° |
| 2026-04-24 23:27 | 32.95309 | -10.19327 | 37109 ft | 423 kts | 223° |
| 2026-04-24 23:27 | 32.90613 | -10.23641 | 37105 ft | 421 kts | 223° |
| 2026-04-24 23:28 | 32.85955 | -10.27914 | 37107 ft | 420 kts | 223° |
| 2026-04-24 23:28 | 32.81256 | -10.32220 | 37106 ft | 421 kts | 223° |
| 2026-04-24 23:29 | 32.76580 | -10.36499 | 37101 ft | 420 kts | 223° |
| 2026-04-24 23:29 | 32.71902 | -10.40774 | 37100 ft | 421 kts | 223° |
| 2026-04-24 23:30 | 32.67242 | -10.45029 | 37103 ft | 421 kts | 223° |
| 2026-04-24 23:30 | 32.62550 | -10.49305 | 37100 ft | 421 kts | 223° |
| 2026-04-24 23:31 | 32.57868 | -10.53567 | 37104 ft | 421 kts | 223° |
| 2026-04-24 23:31 | 32.53181 | -10.57827 | 37097 ft | 420 kts | 223° |
| 2026-04-24 23:32 | 32.48510 | -10.62068 | 37094 ft | 422 kts | 222° |
| 2026-04-24 23:32 | 32.43833 | -10.66307 | 37089 ft | 420 kts | 222° |
| 2026-04-24 23:33 | 32.39154 | -10.70542 | 37086 ft | 420 kts | 222° |
| 2026-04-24 23:33 | 32.34464 | -10.74782 | 37080 ft | 420 kts | 221° |
| 2026-04-24 23:34 | 32.29786 | -10.79005 | 37079 ft | 420 kts | 222° |
| 2026-04-24 23:34 | 32.25113 | -10.83220 | 37080 ft | 421 kts | 221° |
| 2026-04-24 23:35 | 32.20419 | -10.87447 | 37076 ft | 419 kts | 221° |
| 2026-04-24 23:35 | 32.15746 | -10.91649 | 37070 ft | 419 kts | 221° |
| 2026-04-24 23:36 | 32.11083 | -10.95838 | 37074 ft | 418 kts | 221° |
| 2026-04-24 23:36 | 32.06397 | -11.00041 | 37073 ft | 419 kts | 221° |
| 2026-04-24 23:37 | 32.01729 | -11.04222 | 37063 ft | 419 kts | 221° |
| 2026-04-24 23:37 | 31.94691 | -11.10515 | 37070 ft | 419 kts | 221° |
| 2026-04-24 23:38 | 31.90012 | -11.14694 | 37073 ft | 419 kts | 221° |
| 2026-04-24 23:38 | 31.85337 | -11.18861 | 37071 ft | 418 kts | 221° |
| 2026-04-24 23:39 | 31.80694 | -11.22996 | 37070 ft | 417 kts | 221° |
| 2026-04-24 23:39 | 31.75997 | -11.27174 | 37070 ft | 419 kts | 221° |
| 2026-04-24 23:40 | 31.71311 | -11.31344 | 37078 ft | 418 kts | 221° |
| 2026-04-24 23:40 | 31.66654 | -11.35497 | 37078 ft | 417 kts | 221° |
| 2026-04-24 23:41 | 31.61987 | -11.39656 | 37078 ft | 417 kts | 221° |
| 2026-04-24 23:41 | 31.57315 | -11.43813 | 37084 ft | 416 kts | 221° |
| 2026-04-24 23:42 | 31.52659 | -11.47950 | 37071 ft | 417 kts | 221° |
| 2026-04-24 23:42 | 31.48000 | -11.52081 | 37078 ft | 418 kts | 221° |
| 2026-04-24 23:43 | 31.43329 | -11.56220 | 37070 ft | 417 kts | 221° |
| 2026-04-24 23:43 | 31.38674 | -11.60338 | 37078 ft | 417 kts | 221° |
| 2026-04-24 23:44 | 31.34018 | -11.64450 | 37075 ft | 417 kts | 221° |
| 2026-04-24 23:44 | 31.29324 | -11.68592 | 37082 ft | 417 kts | 220° |
| 2026-04-24 23:45 | 31.24657 | -11.72705 | 37074 ft | 417 kts | 220° |
| 2026-04-24 23:45 | 31.19964 | -11.76836 | 37080 ft | 416 kts | 220° |
| 2026-04-24 23:46 | 31.15291 | -11.80943 | 37075 ft | 415 kts | 220° |
| 2026-04-24 23:46 | 31.10628 | -11.85037 | 37084 ft | 415 kts | 220° |
| 2026-04-24 23:47 | 31.05974 | -11.89118 | 37083 ft | 415 kts | 220° |
| 2026-04-24 23:47 | 31.01313 | -11.93201 | 37085 ft | 416 kts | 220° |
| 2026-04-24 23:48 | 30.96671 | -11.97260 | 37083 ft | 415 kts | 220° |
| 2026-04-24 23:48 | 30.92012 | -12.01330 | 37083 ft | 416 kts | 220° |
| 2026-04-24 23:49 | 30.87336 | -12.05409 | 37083 ft | 415 kts | 220° |
| 2026-04-24 23:49 | 30.82671 | -12.09474 | 37083 ft | 415 kts | 220° |
| 2026-04-24 23:50 | 30.77999 | -12.13540 | 37082 ft | 414 kts | 220° |
| 2026-04-24 23:50 | 30.73355 | -12.17576 | 37081 ft | 414 kts | 220° |
| 2026-04-24 23:51 | 30.68653 | -12.21658 | 37078 ft | 415 kts | 220° |
| 2026-04-24 23:51 | 30.63993 | -12.25699 | 37076 ft | 415 kts | 220° |
| 2026-04-24 23:52 | 30.59315 | -12.29749 | 37077 ft | 414 kts | 220° |
| 2026-04-24 23:52 | 30.54644 | -12.33788 | 37077 ft | 413 kts | 220° |
| 2026-04-24 23:53 | 30.49977 | -12.37819 | 37074 ft | 414 kts | 220° |
| 2026-04-24 23:53 | 30.45324 | -12.41824 | 37066 ft | 415 kts | 220° |
| 2026-04-24 23:54 | 30.40634 | -12.45851 | 37071 ft | 415 kts | 220° |
| 2026-04-24 23:54 | 30.35940 | -12.49877 | 37073 ft | 415 kts | 220° |
| 2026-04-24 23:55 | 30.31284 | -12.53865 | 37076 ft | 413 kts | 220° |
| 2026-04-24 23:55 | 30.26607 | -12.57868 | 37074 ft | 413 kts | 220° |
| 2026-04-24 23:56 | 30.21941 | -12.61856 | 37077 ft | 412 kts | 220° |
| 2026-04-24 23:56 | 30.17265 | -12.65848 | 37074 ft | 413 kts | 219° |
| 2026-04-24 23:57 | 30.12623 | -12.69805 | 37079 ft | 414 kts | 219° |
| 2026-04-24 23:57 | 30.07805 | -12.73555 | 37077 ft | 416 kts | 214° |
| 2026-04-24 23:58 | 30.02689 | -12.76846 | 37079 ft | 417 kts | 211° |
| 2026-04-24 23:58 | 29.97507 | -12.80058 | 37083 ft | 416 kts | 211° |
| 2026-04-24 23:59 | 29.92378 | -12.83269 | 37084 ft | 417 kts | 212° |
| 2026-04-24 23:59 | 29.87280 | -12.86493 | 37080 ft | 416 kts | 212° |
| 2026-04-25 00:00 | 29.84724 | -12.88115 | 36949 ft | 412 kts | 212° |
| 2026-04-25 00:00 | 29.82200 | -12.89717 | 36595 ft | 406 kts | 212° |
| 2026-04-25 00:00 | 29.79736 | -12.91282 | 36118 ft | 402 kts | 212° |
| 2026-04-25 00:00 | 29.77257 | -12.92858 | 35709 ft | 397 kts | 212° |
| 2026-04-25 00:01 | 29.74831 | -12.94401 | 35317 ft | 394 kts | 212° |
| 2026-04-25 00:01 | 29.72425 | -12.95931 | 34879 ft | 392 kts | 211° |
| 2026-04-25 00:01 | 29.70024 | -12.97458 | 34429 ft | 390 kts | 211° |
| 2026-04-25 00:01 | 29.67621 | -12.98986 | 33980 ft | 389 kts | 210° |
| 2026-04-25 00:02 | 29.65249 | -13.00493 | 33475 ft | 387 kts | 210° |
| 2026-04-25 00:02 | 29.62891 | -13.01988 | 33017 ft | 383 kts | 210° |
| 2026-04-25 00:02 | 29.60543 | -13.03476 | 32573 ft | 379 kts | 210° |
| 2026-04-25 00:02 | 29.58242 | -13.04933 | 32136 ft | 375 kts | 210° |
| 2026-04-25 00:03 | 29.55952 | -13.06383 | 31704 ft | 371 kts | 211° |
| 2026-04-25 00:03 | 29.53686 | -13.07817 | 31273 ft | 367 kts | 210° |
| 2026-04-25 00:03 | 29.51442 | -13.09237 | 30846 ft | 363 kts | 211° |
| 2026-04-25 00:03 | 29.49248 | -13.10624 | 30424 ft | 359 kts | 211° |
| 2026-04-25 00:04 | 29.47049 | -13.12015 | 30004 ft | 354 kts | 211° |
| 2026-04-25 00:04 | 29.44876 | -13.13387 | 29594 ft | 350 kts | 211° |
| 2026-04-25 00:04 | 29.42744 | -13.14734 | 29185 ft | 346 kts | 211° |
| 2026-04-25 00:04 | 29.40624 | -13.16072 | 28781 ft | 343 kts | 211° |
| 2026-04-25 00:05 | 29.38531 | -13.17392 | 28380 ft | 341 kts | 211° |
| 2026-04-25 00:05 | 29.36398 | -13.18739 | 27979 ft | 357 kts | 210° |
| 2026-04-25 00:05 | 29.34145 | -13.20093 | 27532 ft | 365 kts | 208° |
| 2026-04-25 00:05 | 29.31877 | -13.21359 | 27100 ft | 362 kts | 207° |
| 2026-04-25 00:06 | 29.29572 | -13.22603 | 26665 ft | 358 kts | 207° |
| 2026-04-25 00:06 | 29.27312 | -13.23813 | 26240 ft | 354 kts | 207° |
| 2026-04-25 00:06 | 29.25108 | -13.24998 | 25829 ft | 350 kts | 207° |
| 2026-04-25 00:06 | 29.22897 | -13.26194 | 25418 ft | 346 kts | 207° |
| 2026-04-25 00:07 | 29.20749 | -13.27362 | 25092 ft | 341 kts | 207° |
| 2026-04-25 00:07 | 29.18619 | -13.28523 | 24697 ft | 339 kts | 207° |
| 2026-04-25 00:07 | 29.16457 | -13.29706 | 24021 ft | 344 kts | 207° |
| 2026-04-25 00:07 | 29.14307 | -13.30883 | 23500 ft | 343 kts | 207° |
| 2026-04-25 00:08 | 29.12145 | -13.32066 | 23068 ft | 340 kts | 207° |
| 2026-04-25 00:08 | 29.10006 | -13.33235 | 22462 ft | 343 kts | 207° |
| 2026-04-25 00:08 | 29.07802 | -13.34441 | 21627 ft | 353 kts | 208° |
| 2026-04-25 00:08 | 29.05571 | -13.35662 | 21106 ft | 355 kts | 208° |
| 2026-04-25 00:09 | 29.03304 | -13.36901 | 20695 ft | 363 kts | 208° |
| 2026-04-25 00:09 | 29.01017 | -13.38150 | 20251 ft | 363 kts | 208° |
| 2026-04-25 00:09 | 28.98741 | -13.39390 | 19819 ft | 359 kts | 208° |
| 2026-04-25 00:09 | 28.96476 | -13.40623 | 19383 ft | 354 kts | 208° |
| 2026-04-25 00:10 | 28.94277 | -13.41820 | 18963 ft | 350 kts | 208° |
| 2026-04-25 00:10 | 28.92061 | -13.43026 | 18535 ft | 346 kts | 208° |
| 2026-04-25 00:10 | 28.89879 | -13.44216 | 18111 ft | 342 kts | 208° |
| 2026-04-25 00:10 | 28.87750 | -13.45377 | 17700 ft | 338 kts | 209° |
| 2026-04-25 00:11 | 28.85622 | -13.46537 | 17298 ft | 334 kts | 209° |
| 2026-04-25 00:11 | 28.83511 | -13.47687 | 16889 ft | 331 kts | 208° |
| 2026-04-25 00:11 | 28.81434 | -13.48817 | 16486 ft | 328 kts | 209° |
| 2026-04-25 00:11 | 28.79407 | -13.49919 | 16091 ft | 325 kts | 209° |
| 2026-04-25 00:12 | 28.77350 | -13.51037 | 15696 ft | 322 kts | 209° |
| 2026-04-25 00:12 | 28.75336 | -13.52131 | 15300 ft | 319 kts | 209° |
| 2026-04-25 00:12 | 28.73305 | -13.53234 | 14900 ft | 316 kts | 209° |
| 2026-04-25 00:12 | 28.71316 | -13.54313 | 14516 ft | 314 kts | 209° |
| 2026-04-25 00:13 | 28.69335 | -13.55388 | 14127 ft | 311 kts | 209° |
| 2026-04-25 00:13 | 28.67379 | -13.56449 | 13744 ft | 309 kts | 209° |
| 2026-04-25 00:13 | 28.65437 | -13.57502 | 13366 ft | 307 kts | 209° |
| 2026-04-25 00:13 | 28.63491 | -13.58557 | 12986 ft | 305 kts | 209° |
| 2026-04-25 00:14 | 28.61586 | -13.59589 | 12610 ft | 303 kts | 209° |
| 2026-04-25 00:14 | 28.59685 | -13.60618 | 12234 ft | 301 kts | 209° |
| 2026-04-25 00:14 | 28.57793 | -13.61642 | 11859 ft | 299 kts | 209° |
| 2026-04-25 00:14 | 28.55886 | -13.62673 | 11484 ft | 297 kts | 209° |
| 2026-04-25 00:15 | 28.54021 | -13.63682 | 11114 ft | 296 kts | 209° |
| 2026-04-25 00:15 | 28.52162 | -13.64662 | 10746 ft | 294 kts | 207° |
| 2026-04-25 00:15 | 28.50270 | -13.65597 | 10375 ft | 293 kts | 206° |
| 2026-04-25 00:15 | 28.48362 | -13.66515 | 10032 ft | 290 kts | 205° |
| 2026-04-25 00:16 | 28.46514 | -13.67348 | 9813 ft | 285 kts | 200° |
| 2026-04-25 00:16 | 28.44537 | -13.67751 | 9437 ft | 287 kts | 181° |
| 2026-04-25 00:16 | 28.42535 | -13.67525 | 9102 ft | 286 kts | 171° |
| 2026-04-25 00:16 | 28.40564 | -13.67115 | 8745 ft | 285 kts | 170° |
| 2026-04-25 00:17 | 28.38599 | -13.66710 | 8398 ft | 284 kts | 171° |
| 2026-04-25 00:17 | 28.36615 | -13.66325 | 8109 ft | 281 kts | 168° |
| 2026-04-25 00:17 | 28.34755 | -13.65690 | 8073 ft | 277 kts | 156° |
| 2026-04-25 00:17 | 28.33011 | -13.64703 | 8080 ft | 277 kts | 149° |
| 2026-04-25 00:18 | 28.31311 | -13.63580 | 8078 ft | 278 kts | 148° |
| 2026-04-25 00:18 | 28.29644 | -13.62474 | 8077 ft | 278 kts | 149° |
| 2026-04-25 00:18 | 28.27946 | -13.61381 | 8078 ft | 278 kts | 149° |
| 2026-04-25 00:18 | 28.26219 | -13.60297 | 8077 ft | 278 kts | 150° |
| 2026-04-25 00:19 | 28.24467 | -13.59321 | 8071 ft | 275 kts | 159° |
| 2026-04-25 00:19 | 28.22617 | -13.58909 | 8065 ft | 266 kts | 182° |
| 2026-04-25 00:19 | 28.20760 | -13.59148 | 8081 ft | 265 kts | 192° |
| 2026-04-25 00:19 | 28.18907 | -13.59539 | 8079 ft | 267 kts | 192° |
| 2026-04-25 00:20 | 28.17067 | -13.59887 | 8078 ft | 267 kts | 189° |
| 2026-04-25 00:20 | 28.15175 | -13.60191 | 8080 ft | 266 kts | 188° |
| 2026-04-25 00:20 | 28.13338 | -13.60461 | 8080 ft | 266 kts | 188° |
| 2026-04-25 00:20 | 28.11481 | -13.60777 | 8078 ft | 266 kts | 194° |
| 2026-04-25 00:21 | 28.09761 | -13.61535 | 8070 ft | 262 kts | 217° |
| 2026-04-25 00:21 | 28.08373 | -13.62846 | 8084 ft | 258 kts | 227° |
| 2026-04-25 00:21 | 28.07090 | -13.64301 | 8083 ft | 259 kts | 228° |
| 2026-04-25 00:21 | 28.05776 | -13.65742 | 8082 ft | 259 kts | 226° |
| 2026-04-25 00:22 | 28.04444 | -13.67126 | 8080 ft | 260 kts | 225° |
| 2026-04-25 00:22 | 28.03078 | -13.68508 | 8080 ft | 260 kts | 224° |
| 2026-04-25 00:22 | 28.01723 | -13.69878 | 8080 ft | 259 kts | 227° |
| 2026-04-25 00:22 | 28.00571 | -13.71436 | 8071 ft | 255 kts | 245° |
| 2026-04-25 00:23 | 27.99969 | -13.73309 | 7918 ft | 254 kts | 261° |
| 2026-04-25 00:23 | 27.99627 | -13.75278 | 7667 ft | 250 kts | 263° |
| 2026-04-25 00:23 | 27.99294 | -13.77215 | 7420 ft | 250 kts | 262° |
| 2026-04-25 00:23 | 27.98913 | -13.79163 | 7172 ft | 250 kts | 262° |
| 2026-04-25 00:24 | 27.98717 | -13.81097 | 6971 ft | 245 kts | 278° |
| 2026-04-25 00:24 | 27.99197 | -13.82903 | 6974 ft | 237 kts | 307° |
| 2026-04-25 00:24 | 28.00349 | -13.84220 | 6986 ft | 234 kts | 328° |
| 2026-04-25 00:24 | 28.01811 | -13.85057 | 6980 ft | 230 kts | 345° |
| 2026-04-25 00:25 | 28.03403 | -13.85252 | 6983 ft | 230 kts | 3° |
| 2026-04-25 00:25 | 28.05007 | -13.85091 | 6928 ft | 231 kts | 5° |
| 2026-04-25 00:25 | 28.06639 | -13.84924 | 6635 ft | 231 kts | 4° |
| 2026-04-25 00:25 | 28.08239 | -13.84795 | 6364 ft | 229 kts | 4° |
| 2026-04-25 00:26 | 28.09838 | -13.84684 | 6093 ft | 226 kts | 4° |
| 2026-04-25 00:26 | 28.11405 | -13.84580 | 5827 ft | 224 kts | 4° |
| 2026-04-25 00:26 | 28.12988 | -13.84475 | 5562 ft | 223 kts | 4° |
| 2026-04-25 00:26 | 28.14537 | -13.84372 | 5300 ft | 222 kts | 4° |
| 2026-04-25 00:27 | 28.16097 | -13.84266 | 5037 ft | 220 kts | 4° |
| 2026-04-25 00:27 | 28.17618 | -13.84164 | 4780 ft | 218 kts | 5° |
| 2026-04-25 00:27 | 28.19138 | -13.84100 | 4640 ft | 211 kts | 359° |
| 2026-04-25 00:27 | 28.20560 | -13.84486 | 4511 ft | 212 kts | 333° |
| 2026-04-25 00:28 | 28.21717 | -13.85561 | 4298 ft | 214 kts | 319° |
| 2026-04-25 00:28 | 28.22805 | -13.86721 | 4137 ft | 209 kts | 332° |
| 2026-04-25 00:28 | 28.24145 | -13.87210 | 4080 ft | 203 kts | 359° |
| 2026-04-25 00:28 | 28.25575 | -13.87088 | 3718 ft | 206 kts | 8° |
| 2026-04-25 00:29 | 28.27012 | -13.86955 | 3412 ft | 205 kts | 4° |
| 2026-04-25 00:29 | 28.28440 | -13.86920 | 3120 ft | 200 kts | 2° |
| 2026-04-25 00:29 | 28.29821 | -13.86890 | 2838 ft | 196 kts | 3° |
| 2026-04-25 00:29 | 28.31177 | -13.86844 | 2572 ft | 191 kts | 4° |
| 2026-04-25 00:30 | 28.32508 | -13.86796 | 2309 ft | 187 kts | 3° |
| 2026-04-25 00:30 | 28.33811 | -13.86755 | 2055 ft | 183 kts | 3° |
| 2026-04-25 00:30 | 28.35091 | -13.86714 | 1803 ft | 175 kts | 3° |
| 2026-04-25 00:30 | 28.36269 | -13.86675 | 1588 ft | 158 kts | 3° |
| 2026-04-25 00:31 | 28.37323 | -13.86640 | 1388 ft | 142 kts | 3° |
| 2026-04-25 00:31 | 28.38298 | -13.86608 | 1160 ft | 134 kts | 2° |
| 2026-04-25 00:31 | 28.39246 | -13.86576 | 1014 ft | 135 kts | 2° |
| 2026-04-25 00:31 | 28.40214 | -13.86550 | 814 ft | 137 kts | 2° |
| 2026-04-25 00:32 | 28.41182 | -13.86512 | 622 ft | 134 kts | 2° |
| 2026-04-25 00:32 | 28.42118 | -13.86480 | 467 ft | 134 kts | 1° |
| 2026-04-25 00:32 | 28.43057 | -13.86458 | 262 ft | 135 kts | 1° |
| 2026-04-25 00:32 | 28.44014 | -13.86411 | 95 ft | 133 kts | 0° |
| 2026-04-25 00:33 | 28.44912 | -13.86389 | 31 ft | 108 kts | 2° |
| 2026-04-25 00:33 | 28.45436 | -13.86372 | 31 ft | 49 kts | 2° |
| 2026-04-25 00:33 | 28.45814 | -13.86361 | 31 ft | 47 kts | 1° |
| 2026-04-25 00:33 | 28.46084 | -13.86435 | 31 ft | 29 kts | 331° |
| 2026-04-25 00:34 | 28.46121 | -13.86537 | 31 ft | 13 kts | 204° |
| 2026-04-25 00:34 | 28.46013 | -13.86545 | 31 ft | 17 kts | 181° |
| 2026-04-25 00:34 | 28.45873 | -13.86551 | 31 ft | 21 kts | 182° |
| 2026-04-25 00:34 | 28.45729 | -13.86560 | 31 ft | 17 kts | 207° |
| 2026-04-25 00:35 | 28.45711 | -13.86681 | 31 ft | 15 kts | 261° |
| 2026-04-25 00:35 | 28.45629 | -13.86726 | 31 ft | 14 kts | 181° |
| 2026-04-25 00:35 | 28.45541 | -13.86727 | 31 ft | 9 kts | 181° |
| 2026-04-25 00:35 | 28.45487 | -13.86740 | 31 ft | 6 kts | 247° |
| 2026-04-25 00:36 | 28.45486 | -13.86790 | 31 ft | 5 kts | 272° |
| 2026-04-25 00:36 | 28.45487 | -13.86824 | 31 ft | 0 kts | 272° |